createdAt,value
2019-01-25T00:00:03.903Z,53.70
2019-01-25T00:01:04.136Z,53.60
2019-01-25T00:03:10.230Z,54.50
2019-01-25T00:04:08.578Z,52.40
2019-01-25T00:06:01.649Z,54.00
2019-01-25T00:07:01.885Z,53.50
2019-01-25T00:09:06.046Z,53.50
2019-01-25T00:10:06.278Z,53.10
2019-01-25T00:12:10.438Z,55.50
2019-01-25T00:13:10.670Z,54.10
2019-01-25T00:15:14.835Z,54.20
2019-01-25T00:16:15.070Z,54.30
2019-01-25T00:18:19.237Z,53.50
2019-01-25T00:19:19.471Z,55.40
2019-01-25T00:21:23.639Z,51.90
2019-01-25T00:22:23.871Z,53.00
2019-01-25T00:24:28.032Z,52.70
2019-01-25T00:25:28.267Z,53.50
2019-01-25T00:27:32.412Z,54.30
2019-01-25T00:28:32.642Z,54.80
2019-01-25T00:30:36.801Z,59.70
2019-01-25T00:31:37.029Z,56.30
2019-01-25T00:33:42.209Z,57.80
2019-01-25T00:34:42.438Z,57.80
2019-01-25T00:36:35.542Z,59.40
2019-01-25T00:37:35.774Z,58.60
2019-01-25T00:39:39.943Z,58.80
2019-01-25T00:40:40.174Z,59.70
2019-01-25T00:42:44.314Z,59.40
2019-01-25T00:43:44.544Z,56.90
2019-01-25T00:45:48.702Z,58.50
2019-01-25T00:46:48.935Z,59.50
2019-01-25T00:48:53.067Z,57.80
2019-01-25T00:49:53.296Z,60.40
2019-01-25T00:51:57.462Z,59.10
2019-01-25T00:52:57.690Z,58.20
2019-01-25T00:55:01.848Z,58.00
2019-01-25T00:56:02.078Z,57.30
2019-01-25T00:58:06.225Z,57.60
2019-01-25T00:59:06.453Z,57.00
2019-01-25T01:01:10.613Z,57.70
2019-01-25T01:02:10.840Z,56.60
2019-01-25T01:04:14.977Z,57.10
2019-01-25T01:05:15.207Z,56.90
2019-01-25T01:07:19.370Z,55.10
2019-01-25T01:08:19.590Z,55.10
2019-01-25T01:10:23.761Z,55.20
2019-01-25T01:11:23.991Z,54.00
2019-01-25T01:13:28.124Z,56.40
2019-01-25T01:14:28.355Z,55.90
2019-01-25T01:16:21.442Z,56.30
2019-01-25T01:17:21.668Z,58.00
2019-01-25T01:19:25.840Z,55.00
2019-01-25T01:20:26.062Z,57.10
2019-01-25T01:22:30.217Z,55.80
2019-01-25T01:23:30.449Z,57.40
2019-01-25T01:25:34.605Z,56.40
2019-01-25T01:26:34.832Z,56.20
2019-01-25T01:28:38.973Z,53.70
2019-01-25T01:29:39.202Z,54.90
2019-01-25T01:31:43.370Z,56.00
2019-01-25T01:32:43.603Z,56.00
2019-01-25T01:34:47.741Z,55.60
2019-01-25T01:35:47.962Z,53.50
2019-01-25T01:37:52.143Z,56.40
2019-01-25T01:38:52.349Z,55.60
2019-01-25T01:40:56.513Z,58.10
2019-01-25T01:41:56.742Z,57.50
2019-01-25T01:44:00.889Z,59.70
2019-01-25T01:45:01.118Z,59.10
2019-01-25T01:47:05.300Z,59.30
2019-01-25T01:48:05.504Z,60.50
2019-01-25T01:50:10.649Z,59.20
2019-01-25T01:51:10.881Z,57.90
2019-01-25T01:53:15.044Z,55.70
2019-01-25T01:54:15.272Z,56.60
2019-01-25T01:56:08.359Z,56.90
2019-01-25T01:57:08.584Z,57.30
2019-01-25T01:59:12.723Z,56.20
2019-01-25T02:00:12.957Z,58.30
2019-01-25T02:02:17.142Z,58.20
2019-01-25T02:03:17.367Z,57.20
2019-01-25T02:05:21.502Z,58.20
2019-01-25T02:06:21.732Z,58.40
2019-01-25T02:08:25.929Z,60.50
2019-01-25T02:09:26.160Z,58.90
2019-01-25T02:11:30.314Z,58.60
2019-01-25T02:12:30.540Z,59.40
2019-01-25T02:14:35.695Z,58.50
2019-01-25T02:15:35.924Z,59.20
2019-01-25T02:17:40.086Z,59.90
2019-01-25T02:18:40.315Z,58.60
2019-01-25T02:20:44.471Z,57.60
2019-01-25T02:21:44.702Z,57.80
2019-01-25T02:23:48.863Z,59.60
2019-01-25T02:24:49.090Z,59.70
2019-01-25T02:26:42.154Z,60.70
2019-01-25T02:27:42.383Z,59.10
2019-01-25T02:29:46.550Z,54.60
2019-01-25T02:30:46.778Z,58.20
2019-01-25T02:32:50.976Z,57.10
2019-01-25T02:33:51.164Z,56.30
2019-01-25T02:35:56.326Z,56.00
2019-01-25T02:36:56.560Z,56.40
2019-01-25T02:39:01.566Z,55.50
2019-01-25T02:40:01.800Z,57.30
2019-01-25T02:42:05.941Z,61.30
2019-01-25T02:43:06.192Z,59.80
2019-01-25T02:45:10.332Z,58.50
2019-01-25T02:46:10.563Z,54.10
2019-01-25T02:48:14.755Z,53.80
2019-01-25T02:49:14.987Z,51.90
2019-01-25T02:51:19.122Z,52.10
2019-01-25T02:52:19.349Z,51.80
2019-01-25T02:54:23.528Z,51.00
2019-01-25T02:55:23.749Z,53.50
2019-01-25T02:57:27.890Z,53.40
2019-01-25T02:58:28.127Z,51.00
2019-01-25T03:00:32.297Z,50.70
2019-01-25T03:01:32.540Z,52.00
2019-01-25T03:03:36.696Z,52.70
2019-01-25T03:04:36.920Z,51.90
2019-01-25T03:06:29.999Z,51.60
2019-01-25T03:07:30.227Z,51.70
2019-01-25T03:09:35.393Z,51.80
2019-01-25T03:10:35.626Z,51.60
2019-01-25T03:12:39.766Z,53.90
2019-01-25T03:13:39.994Z,53.10
2019-01-25T03:15:44.153Z,54.90
2019-01-25T03:16:44.382Z,52.30
2019-01-25T03:18:48.545Z,51.40
2019-01-25T03:19:48.777Z,51.90
2019-01-25T03:21:52.923Z,52.60
2019-01-25T03:22:53.158Z,55.20
2019-01-25T03:24:57.329Z,52.50
2019-01-25T03:25:57.562Z,52.60
2019-01-25T03:28:01.693Z,51.20
2019-01-25T03:29:01.922Z,52.10
2019-01-25T03:31:06.137Z,54.70
2019-01-25T03:32:06.360Z,53.50
2019-01-25T03:34:10.477Z,56.00
2019-01-25T03:35:10.708Z,56.40
2019-01-25T03:37:14.845Z,55.80
2019-01-25T03:38:15.077Z,56.20
2019-01-25T03:40:19.235Z,55.80
2019-01-25T03:41:19.465Z,55.50
2019-01-25T03:43:23.601Z,52.50
2019-01-25T03:44:23.829Z,49.40
2019-01-25T03:46:16.920Z,41.50
2019-01-25T03:47:17.143Z,42.60
2019-01-25T03:49:21.303Z,43.30
2019-01-25T03:50:21.534Z,47.40
2019-01-25T03:52:25.673Z,47.90
2019-01-25T03:53:25.907Z,45.60
2019-01-25T03:55:30.058Z,45.50
2019-01-25T03:56:30.285Z,42.90
2019-01-25T03:58:34.428Z,45.80
2019-01-25T03:59:34.658Z,45.00
2019-01-25T04:01:38.838Z,46.10
2019-01-25T04:02:39.063Z,44.60
2019-01-25T04:04:43.245Z,37.80
2019-01-25T04:05:43.471Z,36.00
2019-01-25T04:07:47.613Z,39.20
2019-01-25T04:08:47.825Z,39.50
2019-01-25T04:10:51.984Z,36.70
2019-01-25T04:11:52.214Z,37.20
2019-01-25T04:13:56.357Z,35.20
2019-01-25T04:14:56.581Z,36.10
2019-01-25T04:17:00.736Z,34.30
2019-01-25T04:18:00.972Z,34.60
2019-01-25T04:20:05.097Z,36.40
2019-01-25T04:21:05.337Z,35.40
2019-01-25T04:23:09.501Z,33.10
2019-01-25T04:24:09.730Z,31.30
2019-01-25T04:26:02.816Z,29.30
2019-01-25T04:27:03.045Z,28.50
2019-01-25T04:29:07.180Z,30.20
2019-01-25T04:30:07.413Z,25.60
2019-01-25T04:32:12.596Z,25.60
2019-01-25T04:33:12.824Z,26.50
2019-01-25T04:35:16.965Z,27.70
2019-01-25T04:36:17.199Z,26.80
2019-01-25T04:38:21.360Z,28.30
2019-01-25T04:39:21.594Z,28.10
2019-01-25T04:41:25.760Z,28.30
2019-01-25T04:42:25.997Z,29.10
2019-01-25T04:44:30.168Z,26.00
2019-01-25T04:45:30.396Z,27.20
2019-01-25T04:47:34.564Z,26.50
2019-01-25T04:48:34.809Z,25.40
2019-01-25T04:50:38.944Z,23.10
2019-01-25T04:51:39.180Z,23.40
2019-01-25T04:53:43.349Z,23.90
2019-01-25T04:54:43.583Z,24.30
2019-01-25T04:56:36.670Z,24.70
2019-01-25T04:57:36.903Z,24.70
2019-01-25T04:59:41.037Z,23.40
2019-01-25T05:00:41.270Z,24.70
2019-01-25T05:02:45.422Z,25.20
2019-01-25T05:03:45.661Z,25.70
2019-01-25T05:05:49.864Z,24.70
2019-01-25T05:06:50.086Z,25.90
2019-01-25T05:08:54.278Z,26.70
2019-01-25T05:09:54.510Z,25.60
2019-01-25T05:11:58.690Z,25.40
2019-01-25T05:12:58.925Z,26.60
2019-01-25T05:15:03.091Z,27.00
2019-01-25T05:16:03.326Z,27.40
2019-01-25T05:18:07.503Z,25.60
2019-01-25T05:19:07.735Z,24.30
2019-01-25T05:21:11.881Z,24.60
2019-01-25T05:22:12.112Z,24.00
2019-01-25T05:24:16.280Z,24.60
2019-01-25T05:25:16.506Z,26.50
2019-01-25T05:27:20.674Z,25.00
2019-01-25T05:28:20.913Z,23.70
2019-01-25T05:30:25.070Z,24.50
2019-01-25T05:31:25.302Z,24.50
2019-01-25T05:33:29.464Z,24.20
2019-01-25T05:34:29.697Z,24.00
2019-01-25T05:36:23.778Z,24.80
2019-01-25T05:37:24.012Z,24.40
2019-01-25T05:39:28.173Z,25.90
2019-01-25T05:40:28.404Z,26.10
2019-01-25T05:42:32.548Z,25.60
2019-01-25T05:43:32.778Z,25.30
2019-01-25T05:45:36.936Z,25.60
2019-01-25T05:46:37.177Z,25.30
2019-01-25T05:48:41.335Z,23.90
2019-01-25T05:49:41.567Z,24.50
2019-01-25T05:51:45.721Z,25.90
2019-01-25T05:52:45.938Z,27.70
2019-01-25T05:54:50.096Z,25.10
2019-01-25T05:55:50.329Z,28.20
2019-01-25T05:57:54.472Z,26.50
2019-01-25T05:58:54.711Z,27.70
2019-01-25T06:00:58.870Z,27.60
2019-01-25T06:01:59.096Z,35.80
2019-01-25T06:04:03.255Z,26.10
2019-01-25T06:05:03.490Z,25.30
2019-01-25T06:07:07.626Z,29.00
2019-01-25T06:08:07.861Z,28.20
2019-01-25T06:10:12.026Z,30.70
2019-01-25T06:11:12.257Z,32.70
2019-01-25T06:13:16.408Z,26.70
2019-01-25T06:14:16.638Z,27.60
2019-01-25T06:16:09.721Z,33.70
2019-01-25T06:17:09.953Z,32.90
2019-01-25T06:19:14.119Z,29.40
2019-01-25T06:20:14.396Z,28.60
2019-01-25T06:22:18.478Z,27.50
2019-01-25T06:23:18.714Z,25.40
2019-01-25T06:25:22.876Z,28.60
2019-01-25T06:26:23.108Z,33.40
2019-01-25T06:28:27.254Z,30.10
2019-01-25T06:29:27.486Z,31.60
2019-01-25T06:31:31.640Z,29.60
2019-01-25T06:32:31.876Z,31.40
2019-01-25T06:34:36.029Z,30.70
2019-01-25T06:35:36.259Z,29.60
2019-01-25T06:37:40.394Z,30.60
2019-01-25T06:38:40.623Z,29.70
2019-01-25T06:40:44.785Z,28.20
2019-01-25T06:41:45.031Z,29.50
2019-01-25T06:43:49.149Z,30.20
2019-01-25T06:44:49.378Z,26.20
2019-01-25T06:46:42.459Z,25.20
2019-01-25T06:47:42.695Z,25.90
2019-01-25T06:49:46.856Z,26.90
2019-01-25T06:50:47.081Z,28.90
2019-01-25T06:52:51.216Z,30.10
2019-01-25T06:53:51.447Z,27.10
2019-01-25T06:55:55.618Z,25.30
2019-01-25T06:56:55.858Z,27.90
2019-01-25T06:58:59.982Z,28.30
2019-01-25T07:00:00.213Z,27.90
2019-01-25T07:02:04.367Z,26.80
2019-01-25T07:03:04.596Z,26.20
2019-01-25T07:05:08.749Z,28.50
2019-01-25T07:06:08.979Z,29.20
2019-01-25T07:08:13.123Z,29.00
2019-01-25T07:09:13.352Z,29.20
2019-01-25T07:11:17.502Z,30.50
2019-01-25T07:12:17.723Z,30.20
2019-01-25T07:14:21.869Z,29.10
2019-01-25T07:15:22.092Z,28.90
2019-01-25T07:17:26.266Z,28.80
2019-01-25T07:18:26.498Z,29.30
2019-01-25T07:20:30.663Z,29.10
2019-01-25T07:21:30.891Z,31.30
2019-01-25T07:23:35.025Z,29.80
2019-01-25T07:24:35.255Z,29.60
2019-01-25T07:26:29.352Z,28.50
2019-01-25T07:27:29.582Z,29.20
2019-01-25T07:29:33.719Z,29.00
2019-01-25T07:30:33.951Z,30.90
2019-01-25T07:32:38.113Z,32.00
2019-01-25T07:33:38.332Z,31.30
2019-01-25T07:35:42.510Z,31.30
2019-01-25T07:36:42.773Z,32.40
2019-01-25T07:38:46.851Z,30.50
2019-01-25T07:39:47.089Z,31.60
2019-01-25T07:41:51.238Z,32.60
2019-01-25T07:42:51.476Z,31.00
2019-01-25T07:44:55.611Z,31.50
2019-01-25T07:45:55.838Z,30.00
2019-01-25T07:48:00.017Z,29.10
2019-01-25T07:49:00.233Z,29.70
2019-01-25T07:51:04.377Z,31.70
2019-01-25T07:52:04.678Z,30.50
2019-01-25T07:54:08.733Z,31.70
2019-01-25T07:55:08.968Z,30.70
2019-01-25T07:57:13.127Z,33.00
2019-01-25T07:58:13.363Z,34.50
2019-01-25T08:00:17.488Z,31.30
2019-01-25T08:01:17.717Z,32.20
2019-01-25T08:03:21.885Z,37.60
2019-01-25T08:04:22.100Z,35.80
2019-01-25T08:06:15.186Z,35.40
2019-01-25T08:07:15.420Z,29.40
2019-01-25T08:09:19.557Z,34.20
2019-01-25T08:10:19.797Z,36.60
2019-01-25T08:12:23.944Z,29.90
2019-01-25T08:13:24.167Z,27.70
2019-01-25T08:15:28.304Z,33.90
2019-01-25T08:16:28.532Z,40.20
2019-01-25T08:18:32.689Z,32.40
2019-01-25T08:19:32.978Z,41.00
2019-01-25T08:21:37.071Z,34.00
2019-01-25T08:22:37.301Z,36.50
2019-01-25T08:24:41.433Z,27.90
2019-01-25T08:25:41.703Z,26.00
2019-01-25T08:27:45.847Z,34.80
2019-01-25T08:28:46.073Z,29.20
2019-01-25T08:30:50.191Z,30.40
2019-01-25T08:31:50.432Z,27.30
2019-01-25T08:33:54.610Z,29.20
2019-01-25T08:34:54.825Z,29.60
2019-01-25T08:36:58.949Z,30.10
2019-01-25T08:37:59.179Z,28.70
2019-01-25T08:40:03.333Z,29.00
2019-01-25T08:41:03.580Z,28.20
2019-01-25T08:43:08.986Z,28.10
2019-01-25T08:44:08.034Z,29.00
2019-01-25T08:46:01.065Z,28.80
2019-01-25T08:47:01.305Z,26.90
2019-01-25T08:49:05.473Z,27.00
2019-01-25T08:50:05.690Z,29.00
2019-01-25T08:52:10.853Z,26.40
2019-01-25T08:53:10.053Z,26.50
2019-01-25T08:55:14.228Z,26.40
2019-01-25T08:56:14.483Z,27.00
2019-01-25T08:58:18.615Z,27.10
2019-01-25T08:59:18.845Z,27.40
2019-01-25T09:01:22.969Z,26.80
2019-01-25T09:02:23.192Z,27.80
2019-01-25T09:04:27.348Z,28.80
2019-01-25T09:05:27.579Z,26.80
2019-01-25T09:07:31.734Z,25.00
2019-01-25T09:08:31.963Z,27.30
2019-01-25T09:10:36.101Z,25.50
2019-01-25T09:11:36.330Z,27.60
2019-01-25T09:13:40.487Z,26.70
2019-01-25T09:14:40.717Z,27.70
2019-01-25T09:16:33.785Z,28.00
2019-01-25T09:17:34.013Z,27.50
2019-01-25T09:19:38.173Z,27.70
2019-01-25T09:20:38.407Z,28.80
2019-01-25T09:22:42.567Z,28.60
2019-01-25T09:23:42.798Z,28.40
2019-01-25T09:25:46.936Z,28.50
2019-01-25T09:26:47.164Z,29.10
2019-01-25T09:28:51.325Z,29.00
2019-01-25T09:29:51.557Z,28.00
2019-01-25T09:31:55.695Z,26.90
2019-01-25T09:32:55.932Z,27.00
2019-01-25T09:35:00.240Z,24.80
2019-01-25T09:36:00.321Z,26.40
2019-01-25T09:38:04.481Z,28.70
2019-01-25T09:39:04.713Z,27.10
2019-01-25T09:41:08.853Z,25.70
2019-01-25T09:42:09.090Z,24.00
2019-01-25T09:44:13.244Z,25.00
2019-01-25T09:45:13.479Z,25.20
2019-01-25T09:47:17.627Z,27.00
2019-01-25T09:48:17.909Z,25.40
2019-01-25T09:50:22.072Z,24.20
2019-01-25T09:51:22.305Z,25.60
2019-01-25T09:53:26.467Z,25.30
2019-01-25T09:54:26.697Z,26.20
2019-01-25T09:56:19.790Z,24.70
2019-01-25T09:57:20.001Z,25.10
2019-01-25T09:59:24.163Z,27.10
2019-01-25T10:00:24.400Z,27.90
2019-01-25T10:02:28.545Z,25.20
2019-01-25T10:03:28.780Z,25.40
2019-01-25T10:05:32.932Z,25.10
2019-01-25T10:06:33.188Z,25.50
2019-01-25T10:08:37.350Z,26.00
2019-01-25T10:09:37.582Z,26.10
2019-01-25T10:11:41.719Z,25.80
2019-01-25T10:12:43.438Z,26.20
2019-01-25T10:14:46.107Z,25.70
2019-01-25T10:15:46.338Z,26.00
2019-01-25T10:17:50.480Z,25.30
2019-01-25T10:18:50.712Z,23.80
2019-01-25T10:20:54.906Z,24.30
2019-01-25T10:21:55.135Z,23.70
2019-01-25T10:23:59.294Z,24.10
2019-01-25T10:24:59.523Z,24.60
2019-01-25T10:27:03.661Z,26.30
2019-01-25T10:28:03.894Z,25.10
2019-01-25T10:30:08.054Z,25.90
2019-01-25T10:31:08.285Z,25.00
2019-01-25T10:33:12.424Z,33.90
2019-01-25T10:34:12.655Z,30.70
2019-01-25T10:36:05.747Z,35.80
2019-01-25T10:37:05.977Z,44.10
2019-01-25T10:39:10.136Z,33.10
2019-01-25T10:40:10.368Z,39.10
2019-01-25T10:42:14.510Z,26.00
2019-01-25T10:43:14.743Z,25.30
2019-01-25T10:45:18.909Z,29.10
2019-01-25T10:46:19.145Z,35.30
2019-01-25T10:48:23.284Z,75.10
2019-01-25T10:49:23.513Z,26.90
2019-01-25T10:51:27.674Z,23.40
2019-01-25T10:52:27.910Z,25.40
2019-01-25T10:54:32.078Z,24.20
2019-01-25T10:55:32.296Z,22.90
2019-01-25T10:57:36.447Z,23.40
2019-01-25T10:58:36.679Z,24.10
2019-01-25T11:00:40.840Z,22.80
2019-01-25T11:01:41.063Z,23.50
2019-01-25T11:03:46.675Z,23.80
2019-01-25T11:04:45.436Z,24.30
2019-01-25T11:06:38.530Z,24.00
2019-01-25T11:07:38.760Z,26.70
2019-01-25T11:09:42.899Z,25.60
2019-01-25T11:10:43.130Z,26.10
2019-01-25T11:12:47.294Z,25.30
2019-01-25T11:13:47.530Z,24.60
2019-01-25T11:15:52.700Z,25.60
2019-01-25T11:16:52.930Z,24.90
2019-01-25T11:18:57.076Z,24.30
2019-01-25T11:19:57.308Z,24.90
2019-01-25T11:22:01.471Z,26.10
2019-01-25T11:23:01.717Z,25.90
2019-01-25T11:25:05.840Z,24.40
2019-01-25T11:26:06.071Z,25.30
2019-01-25T11:28:10.245Z,24.90
2019-01-25T11:29:10.477Z,24.00
2019-01-25T11:31:14.649Z,22.30
2019-01-25T11:32:14.881Z,23.80
2019-01-25T11:34:19.030Z,22.90
2019-01-25T11:35:19.259Z,23.80
2019-01-25T11:37:23.478Z,24.60
2019-01-25T11:38:23.684Z,24.00
2019-01-25T11:40:28.842Z,24.20
2019-01-25T11:41:29.073Z,24.60
2019-01-25T11:43:33.246Z,23.90
2019-01-25T11:44:33.474Z,25.80
2019-01-25T11:46:26.568Z,25.20
2019-01-25T11:47:26.798Z,25.60
2019-01-25T11:49:30.946Z,24.80
2019-01-25T11:50:31.183Z,25.10
2019-01-25T11:52:35.353Z,20.80
2019-01-25T11:53:35.577Z,22.50
2019-01-25T11:55:39.726Z,16.70
2019-01-25T11:56:39.966Z,18.20
2019-01-25T11:58:44.136Z,17.20
2019-01-25T11:59:44.368Z,16.40
2019-01-25T12:01:48.530Z,15.90
2019-01-25T12:02:48.766Z,16.00
2019-01-25T12:04:52.911Z,15.80
2019-01-25T12:05:53.147Z,14.10
2019-01-25T12:07:57.310Z,14.70
2019-01-25T12:08:57.544Z,14.50
2019-01-25T12:11:01.697Z,15.30
2019-01-25T12:12:01.926Z,15.10
2019-01-25T12:14:06.095Z,15.10
2019-01-25T12:15:06.329Z,15.40
2019-01-25T12:17:10.542Z,15.10
2019-01-25T12:18:10.767Z,15.20
2019-01-25T12:20:14.912Z,15.20
2019-01-25T12:21:15.199Z,13.70
2019-01-25T12:23:20.034Z,15.00
2019-01-25T12:24:19.605Z,14.60
2019-01-25T12:26:12.680Z,14.20
2019-01-25T12:27:12.899Z,14.80
2019-01-25T12:29:18.663Z,13.50
2019-01-25T12:30:18.465Z,14.30
2019-01-25T12:32:22.649Z,15.20
2019-01-25T12:33:22.942Z,15.50
2019-01-25T12:35:27.309Z,16.20
2019-01-25T12:36:27.436Z,13.20
2019-01-25T12:38:31.596Z,14.30
2019-01-25T12:39:31.827Z,14.20
2019-01-25T12:41:36.036Z,13.60
2019-01-25T12:42:36.262Z,13.70
2019-01-25T12:44:40.427Z,14.30
2019-01-25T12:45:40.668Z,13.50
2019-01-25T12:47:44.810Z,13.70
2019-01-25T12:48:45.035Z,12.50
2019-01-25T12:50:49.408Z,13.60
2019-01-25T12:51:49.423Z,13.00
2019-01-25T12:53:53.641Z,12.80
2019-01-25T12:54:53.985Z,14.00
2019-01-25T12:56:47.072Z,12.00
2019-01-25T12:57:47.296Z,12.40
2019-01-25T12:59:52.476Z,13.70
2019-01-25T13:00:52.704Z,14.30
2019-01-25T13:02:56.879Z,12.80
2019-01-25T13:03:57.127Z,14.10
2019-01-25T13:06:01.491Z,15.50
2019-01-25T13:07:01.509Z,14.80
2019-01-25T13:09:05.738Z,14.10
2019-01-25T13:10:05.978Z,16.50
2019-01-25T13:12:10.159Z,14.30
2019-01-25T13:13:10.498Z,15.30
2019-01-25T13:15:14.777Z,14.80
2019-01-25T13:16:14.983Z,13.70
2019-01-25T13:18:19.209Z,13.00
2019-01-25T13:19:19.470Z,18.00
2019-01-25T13:21:23.611Z,15.00
2019-01-25T13:22:23.827Z,14.40
2019-01-25T13:24:28.045Z,12.90
2019-01-25T13:25:28.275Z,12.50
2019-01-25T13:27:32.413Z,13.10
2019-01-25T13:28:32.737Z,13.00
2019-01-25T13:30:36.799Z,15.20
2019-01-25T13:31:37.074Z,15.40
2019-01-25T13:33:41.190Z,16.50
2019-01-25T13:34:41.419Z,12.80
2019-01-25T13:36:34.487Z,12.50
2019-01-25T13:37:34.720Z,13.10
2019-01-25T13:39:38.882Z,14.90
2019-01-25T13:40:39.114Z,18.60
2019-01-25T13:42:43.273Z,16.20
2019-01-25T13:43:43.493Z,17.60
2019-01-25T13:45:47.646Z,13.20
2019-01-25T13:46:47.876Z,14.00
2019-01-25T13:48:52.047Z,14.70
2019-01-25T13:49:52.266Z,13.60
2019-01-25T13:51:56.411Z,13.00
2019-01-25T13:52:56.645Z,13.30
2019-01-25T13:55:00.803Z,14.20
2019-01-25T13:56:01.042Z,13.70
2019-01-25T13:58:05.170Z,13.20
2019-01-25T13:59:05.402Z,12.70
2019-01-25T14:01:09.555Z,14.60
2019-01-25T14:02:09.795Z,15.00
2019-01-25T14:04:13.940Z,13.70
2019-01-25T14:05:14.174Z,13.10
2019-01-25T14:07:21.028Z,13.60
2019-01-25T14:08:18.571Z,18.00
2019-01-25T14:10:22.732Z,17.60
2019-01-25T14:11:22.964Z,15.90
2019-01-25T14:13:27.106Z,22.60
2019-01-25T14:14:27.343Z,19.10
2019-01-25T14:16:20.445Z,14.50
2019-01-25T14:17:20.680Z,14.60
2019-01-25T14:19:24.823Z,13.10
2019-01-25T14:20:25.057Z,13.40
2019-01-25T14:22:29.230Z,13.60
2019-01-25T14:23:29.454Z,14.60
2019-01-25T14:25:33.618Z,13.80
2019-01-25T14:26:34.184Z,13.70
2019-01-25T14:28:37.988Z,15.30
2019-01-25T14:29:38.220Z,14.20
2019-01-25T14:31:42.383Z,13.20
2019-01-25T14:32:42.613Z,14.70
2019-01-25T14:34:46.760Z,16.10
2019-01-25T14:35:46.990Z,16.20
2019-01-25T14:37:52.486Z,14.80
2019-01-25T14:38:51.384Z,14.50
2019-01-25T14:40:55.551Z,14.10
2019-01-25T14:41:55.783Z,16.50
2019-01-25T14:43:59.922Z,14.90
2019-01-25T14:45:00.175Z,14.70
2019-01-25T14:47:04.314Z,14.60
2019-01-25T14:48:04.542Z,13.90
2019-01-25T14:50:08.685Z,16.30
2019-01-25T14:51:08.915Z,19.50
2019-01-25T14:53:13.080Z,16.10
2019-01-25T14:54:13.312Z,15.50
2019-01-25T14:56:06.382Z,15.30
2019-01-25T14:57:06.614Z,14.60
2019-01-25T14:59:10.782Z,16.00
2019-01-25T15:00:11.017Z,15.50
2019-01-25T15:02:15.205Z,16.40
2019-01-25T15:03:15.441Z,16.20
2019-01-25T15:05:19.583Z,15.90
2019-01-25T15:06:19.822Z,15.70
2019-01-25T15:08:23.974Z,14.80
2019-01-25T15:09:24.205Z,15.00
2019-01-25T15:11:29.370Z,16.10
2019-01-25T15:12:29.604Z,14.60
2019-01-25T15:14:33.831Z,16.70
2019-01-25T15:15:34.068Z,16.50
2019-01-25T15:17:38.221Z,17.10
2019-01-25T15:18:38.454Z,18.80
2019-01-25T15:20:42.602Z,15.80
2019-01-25T15:21:42.838Z,15.90
2019-01-25T15:23:47.002Z,16.90
2019-01-25T15:24:47.234Z,17.80
2019-01-25T15:26:40.317Z,19.10
2019-01-25T15:27:40.559Z,18.90
2019-01-25T15:29:44.702Z,18.90
2019-01-25T15:30:44.935Z,19.40
2019-01-25T15:32:49.099Z,26.30
2019-01-25T15:33:49.325Z,27.30
2019-01-25T15:35:53.476Z,24.90
2019-01-25T15:36:53.710Z,23.00
2019-01-25T15:38:57.875Z,36.30
2019-01-25T15:39:58.098Z,28.10
2019-01-25T15:42:02.254Z,70.20
2019-01-25T15:43:02.487Z,28.90
2019-01-25T15:45:07.672Z,21.30
2019-01-25T15:46:07.905Z,22.10
2019-01-25T15:48:12.053Z,26.50
2019-01-25T15:49:12.278Z,24.30
2019-01-25T15:51:16.417Z,26.40
2019-01-25T15:52:16.648Z,24.20
2019-01-25T15:54:20.806Z,23.90
2019-01-25T15:55:21.041Z,25.80
2019-01-25T15:57:25.354Z,26.70
2019-01-25T15:58:25.587Z,26.70
2019-01-25T16:00:29.730Z,27.00
2019-01-25T16:01:29.952Z,29.00
2019-01-25T16:03:34.117Z,29.80
2019-01-25T16:04:35.054Z,28.30
2019-01-25T16:06:27.412Z,30.20
2019-01-25T16:07:27.647Z,28.20
2019-01-25T16:09:31.808Z,29.20
2019-01-25T16:10:32.046Z,28.50
2019-01-25T16:12:36.252Z,30.10
2019-01-25T16:13:36.483Z,30.50
2019-01-25T16:15:40.660Z,32.60
2019-01-25T16:16:40.906Z,33.30
2019-01-25T16:18:45.065Z,40.70
2019-01-25T16:19:45.294Z,39.20
2019-01-25T16:21:49.428Z,39.30
2019-01-25T16:22:49.662Z,40.10
2019-01-25T16:24:53.817Z,41.80
2019-01-25T16:25:54.057Z,40.10
2019-01-25T16:27:58.209Z,41.30
2019-01-25T16:28:58.442Z,39.20
2019-01-25T16:31:02.578Z,43.30
2019-01-25T16:32:02.808Z,44.00
2019-01-25T16:34:06.968Z,45.90
2019-01-25T16:35:07.195Z,45.10
2019-01-25T16:37:11.328Z,41.80
2019-01-25T16:38:11.563Z,42.00
2019-01-25T16:40:15.857Z,42.20
2019-01-25T16:41:15.960Z,44.20
2019-01-25T16:43:20.119Z,43.90
2019-01-25T16:44:25.501Z,44.40
2019-01-25T16:46:13.405Z,44.90
2019-01-25T16:47:13.662Z,47.60
2019-01-25T16:49:17.801Z,46.20
2019-01-25T16:50:23.623Z,46.40
2019-01-25T16:52:22.168Z,45.60
2019-01-25T16:53:22.396Z,44.70
2019-01-25T16:55:27.560Z,45.20
2019-01-25T16:56:27.791Z,45.20
2019-01-25T16:58:31.927Z,45.30
2019-01-25T16:59:32.159Z,45.90
2019-01-25T17:01:36.320Z,44.70
2019-01-25T17:02:36.551Z,45.90
2019-01-25T17:04:40.709Z,48.30
2019-01-25T17:05:40.944Z,46.70
2019-01-25T17:07:45.080Z,47.00
2019-01-25T17:08:45.316Z,47.50
2019-01-25T17:10:49.477Z,48.40
2019-01-25T17:11:49.706Z,49.10
2019-01-25T17:13:53.867Z,51.10
2019-01-25T17:14:54.090Z,47.40
2019-01-25T17:16:47.187Z,49.20
2019-01-25T17:17:47.417Z,50.80
2019-01-25T17:19:51.579Z,69.90
2019-01-25T17:20:51.807Z,61.50
2019-01-25T17:22:55.971Z,60.60
2019-01-25T17:23:56.184Z,59.80
2019-01-25T17:26:00.392Z,61.00
2019-01-25T17:27:00.585Z,89.60
2019-01-25T17:29:04.720Z,204.00
2019-01-25T17:30:04.958Z,62.10
2019-01-25T17:32:09.104Z,143.20
2019-01-25T17:33:09.390Z,110.80
2019-01-25T17:35:13.559Z,92.60
2019-01-25T17:36:13.873Z,167.70
2019-01-25T17:38:18.040Z,52.10
2019-01-25T17:39:18.313Z,62.50
2019-01-25T17:41:22.559Z,65.20
2019-01-25T17:42:22.773Z,82.00
2019-01-25T17:44:28.003Z,71.60
2019-01-25T17:45:28.264Z,148.60
2019-01-25T17:47:32.402Z,60.70
2019-01-25T17:48:32.731Z,62.20
2019-01-25T17:50:36.971Z,60.20
2019-01-25T17:51:37.200Z,57.70
2019-01-25T17:53:43.956Z,53.20
2019-01-25T17:54:41.924Z,55.70
2019-01-25T17:56:35.090Z,59.10
2019-01-25T17:57:35.397Z,56.80
2019-01-25T17:59:39.617Z,55.10
2019-01-25T18:00:39.882Z,56.10
2019-01-25T18:02:44.057Z,53.20
2019-01-25T18:03:44.346Z,59.60
2019-01-25T18:05:48.558Z,55.70
2019-01-25T18:06:48.787Z,56.40
2019-01-25T18:08:52.922Z,55.80
2019-01-25T18:09:53.176Z,57.20
2019-01-25T18:11:57.340Z,54.70
2019-01-25T18:12:57.574Z,56.60
2019-01-25T18:15:01.827Z,56.00
2019-01-25T18:16:02.058Z,58.30
2019-01-25T18:18:06.202Z,57.90
2019-01-25T18:19:06.424Z,55.20
2019-01-25T18:21:10.661Z,55.70
2019-01-25T18:22:10.906Z,55.50
2019-01-25T18:24:15.084Z,58.70
2019-01-25T18:25:15.370Z,55.90
2019-01-25T18:27:19.534Z,56.90
2019-01-25T18:28:19.815Z,53.70
2019-01-25T18:30:24.026Z,56.30
2019-01-25T18:31:24.257Z,56.40
2019-01-25T18:33:28.403Z,51.90
2019-01-25T18:34:28.696Z,53.10
2019-01-25T18:36:21.825Z,63.00
2019-01-25T18:37:22.075Z,63.40
2019-01-25T18:39:26.215Z,64.60
2019-01-25T18:40:26.459Z,60.00
2019-01-25T18:42:30.667Z,52.80
2019-01-25T18:43:30.972Z,50.40
2019-01-25T18:45:36.241Z,52.50
2019-01-25T18:46:36.515Z,51.10
2019-01-25T18:48:40.769Z,53.50
2019-01-25T18:49:40.964Z,53.50
2019-01-25T18:51:45.199Z,48.90
2019-01-25T18:52:45.490Z,54.40
2019-01-25T18:54:49.614Z,52.70
2019-01-25T18:55:49.848Z,50.90
2019-01-25T18:57:54.100Z,48.70
2019-01-25T18:58:54.374Z,52.00
2019-01-25T19:00:58.596Z,50.70
2019-01-25T19:01:58.879Z,51.30
2019-01-25T19:04:03.043Z,50.50
2019-01-25T19:05:03.310Z,54.90
2019-01-25T19:07:07.478Z,50.30
2019-01-25T19:08:07.840Z,53.50
2019-01-25T19:10:11.982Z,51.80
2019-01-25T19:11:12.216Z,49.80
2019-01-25T19:13:16.425Z,49.80
2019-01-25T19:14:16.653Z,50.20
2019-01-25T19:16:09.720Z,49.60
2019-01-25T19:17:09.953Z,48.80
2019-01-25T19:19:14.126Z,49.50
2019-01-25T19:20:14.356Z,49.00
2019-01-25T19:22:18.539Z,49.90
2019-01-25T19:23:18.751Z,48.10
2019-01-25T19:25:22.897Z,49.80
2019-01-25T19:26:23.132Z,52.00
2019-01-25T19:28:27.290Z,50.20
2019-01-25T19:29:27.523Z,49.60
2019-01-25T19:31:31.657Z,52.50
2019-01-25T19:32:31.891Z,51.10
2019-01-25T19:34:36.046Z,49.20
2019-01-25T19:35:36.277Z,47.00
2019-01-25T19:37:40.435Z,48.10
2019-01-25T19:38:40.657Z,48.80
2019-01-25T19:40:44.792Z,48.30